Time;durP1;ratioP1;P1;durP2;ratioP2;P2;SDS_P1;SDS_P2;PMS_P1;PMS_P2;Temp;Humidity;BMP_temperature;BMP_pressure;BME280_temperature;BME280_humidity;BME280_pressure;Samples;Min_cycle;Max_cycle;Signal;HPM_P1;HPM_P2
2021/12/01 00:01:49;;;;;;;19.95;10.43;;;;;;;1.18;79.46;99124.25;5099306;28;20036;-92
2021/12/01 00:04:18;;;;;;;22.02;11.15;;;;;;;1.00;79.56;99107.38;5105624;28;20044;-91
2021/12/01 00:06:44;;;;;;;22.38;11.32;;;;;;;0.99;79.90;99107.34;5103433;28;20044;-93
2021/12/01 00:09:10;;;;;;;20.13;10.35;;;;;;;1.05;80.51;99135.38;5100035;28;20036;-92
2021/12/01 00:11:35;;;;;;;19.38;10.75;;;;;;;0.93;80.84;99118.63;5098217;28;20101;-93
2021/12/01 00:14:01;;;;;;;19.38;11.15;;;;;;;0.85;80.67;99114.97;5097778;28;20055;-94
2021/12/01 00:16:27;;;;;;;19.88;10.73;;;;;;;0.89;82.05;99123.75;5098258;28;20036;-94
2021/12/01 00:18:53;;;;;;;20.98;10.63;;;;;;;0.87;81.73;99131.59;5098092;28;20040;-94
2021/12/01 00:21:21;;;;;;;21.38;10.27;;;;;;;0.76;81.82;99125.28;5097764;28;20441;-94
2021/12/01 00:23:47;;;;;;;20.48;10.60;;;;;;;0.64;81.36;99101.50;5097647;28;20570;-93
2021/12/01 00:26:13;;;;;;;25.48;11.23;;;;;;;0.73;81.10;99123.47;5097470;28;20040;-93
2021/12/01 00:28:39;;;;;;;22.13;11.38;;;;;;;0.74;81.85;99108.69;5097874;28;20036;-93
2021/12/01 00:31:05;;;;;;;23.25;12.20;;;;;;;0.84;80.78;99128.03;5098241;28;20076;-93
2021/12/01 00:33:32;;;;;;;22.90;11.50;;;;;;;0.71;79.58;99098.16;5097661;28;20055;-92
2021/12/01 00:35:59;;;;;;;21.50;11.15;;;;;;;0.90;77.68;99112.44;5097678;28;20048;-93
2021/12/01 00:38:28;;;;;;;23.52;11.25;;;;;;;0.89;78.19;99097.56;5097186;28;20551;-93
2021/12/01 00:40:55;;;;;;;21.75;12.55;;;;;;;1.12;77.62;99126.78;5097615;28;20048;-93
2021/12/01 00:43:23;;;;;;;22.83;11.82;;;;;;;1.11;76.86;99102.31;5097510;28;20127;-92
2021/12/01 00:45:55;;;;;;;20.17;10.93;;;;;;;1.23;74.87;99089.41;5097371;28;20046;-92
2021/12/01 00:48:22;;;;;;;23.92;12.10;;;;;;;1.52;72.70;99088.97;5097153;28;20054;-93
2021/12/01 00:50:49;;;;;;;21.33;11.02;;;;;;;1.72;71.50;99102.34;5096888;28;20058;-93
2021/12/01 00:53:15;;;;;;;21.20;11.55;;;;;;;1.87;70.80;99112.16;5097025;28;20048;-92
2021/12/01 00:55:43;;;;;;;22.10;11.80;;;;;;;2.05;70.72;99128.13;5097066;28;20093;-93
2021/12/01 00:58:11;;;;;;;22.98;11.43;;;;;;;1.88;71.40;99097.31;5097367;28;20094;-91
2021/12/01 01:00:38;;;;;;;20.48;11.07;;;;;;;1.91;71.97;99105.19;5096875;28;20058;-91
2021/12/01 01:03:04;;;;;;;23.52;11.40;;;;;;;1.83;72.34;99092.00;5095945;28;20131;-93
2021/12/01 01:05:30;;;;;;;22.05;11.23;;;;;;;1.93;71.54;99114.88;5097254;28;20420;-92
2021/12/01 01:07:56;;;;;;;21.95;10.52;;;;;;;2.03;71.18;99134.22;5097116;28;20036;-93
2021/12/01 01:16:31;;;;;;;27.10;11.00;;;;;;;2.51;66.96;99127.78;5151189;27;20378;-94
2021/12/01 01:19:00;;;;;;;19.25;10.38;;;;;;;2.54;67.59;99119.97;5133900;27;20090;-93
2021/12/01 01:21:28;;;;;;;20.02;11.00;;;;;;;2.54;68.79;99103.31;5134072;28;20054;-93
2021/12/01 01:23:55;;;;;;;21.10;10.48;;;;;;;2.37;70.25;99090.91;5133908;27;20043;-93
2021/12/01 01:26:21;;;;;;;18.10;10.98;;;;;;;2.36;71.05;99109.25;5133529;28;20046;-92
2021/12/01 01:28:48;;;;;;;19.98;10.30;;;;;;;2.32;70.79;99110.06;5133471;28;20046;-92
2021/12/01 01:31:16;;;;;;;20.95;9.63;;;;;;;2.36;70.89;99127.63;5133178;28;20507;-93
2021/12/01 01:33:46;;;;;;;20.00;10.65;;;;;;;2.23;70.73;99114.38;5132963;28;20146;-91
2021/12/01 01:36:11;;;;;;;;;;;;;;;2.23;73.24;99124.88;5134054;27;20055;-94
2021/12/01 01:38:38;;;;;;;19.75;10.57;;;;;;;2.03;75.97;99103.63;5133789;27;20286;-93
2021/12/01 01:41:07;;;;;;;19.70;11.02;;;;;;;2.03;75.20;99089.63;5133490;27;20524;-92
2021/12/01 01:43:33;;;;;;;;;;;;;;;2.24;72.34;99105.63;5133824;27;20050;-92
2021/12/01 01:45:59;;;;;;;18.77;8.45;;;;;;;2.19;71.57;99072.31;5133934;27;20298;-92
2021/12/01 01:51:27;;;;;;;18.25;8.52;;;;;;;2.68;69.26;99092.09;5106741;27;20372;-92
2021/12/01 01:53:55;;;;;;;17.98;9.15;;;;;;;2.81;69.04;99089.59;5073248;28;20140;-93
2021/12/01 01:56:23;;;;;;;16.55;8.40;;;;;;;2.81;69.02;99066.81;5072935;28;20045;-93
2021/12/01 01:58:49;;;;;;;15.07;8.93;;;;;;;3.05;69.19;99086.28;5072713;28;20072;-94
2021/12/01 02:04:18;;;;;;;14.65;7.57;;;;;;;3.16;68.04;99078.47;5110072;27;20374;-93
2021/12/01 02:06:47;;;;;;;13.50;8.30;;;;;;;3.15;67.55;99063.59;5093463;28;20055;-93
2021/12/01 02:09:15;;;;;;;17.17;8.07;;;;;;;3.29;67.82;99090.84;5093251;28;20044;-92
2021/12/01 02:11:42;;;;;;;15.18;7.80;;;;;;;3.14;68.22;99059.19;5093429;28;20047;-93
2021/12/01 02:14:10;;;;;;;24.85;13.07;;;;;;;3.07;72.75;99060.91;5093640;28;20067;-94
2021/12/01 02:16:37;;;;;;;19.23;11.60;;;;;;;3.18;75.92;99084.63;5093366;28;20040;-92
2021/12/01 02:19:03;;;;;;;16.67;10.25;;;;;;;3.04;76.09;99071.41;5093081;28;20509;-94
2021/12/01 02:21:32;;;;;;;16.52;8.55;;;;;;;2.96;76.93;99068.69;5093206;28;20079;-94
2021/12/01 02:24:00;;;;;;;16.05;9.05;;;;;;;2.78;77.18;99039.66;5092746;28;20047;-94
2021/12/01 02:26:27;;;;;;;16.20;8.95;;;;;;;2.76;78.45;99042.28;5092879;28;20494;-93
2021/12/01 02:28:56;;;;;;;17.35;9.30;;;;;;;2.74;77.78;99041.38;5092613;28;20101;-94
2021/12/01 02:31:25;;;;;;;15.48;8.13;;;;;;;2.71;78.64;99036.13;5092534;28;20048;-92
2021/12/01 02:33:53;;;;;;;14.40;7.32;;;;;;;2.83;80.36;99064.22;5093180;28;20422;-92
2021/12/01 02:36:19;;;;;;;14.70;7.25;;;;;;;2.60;79.60;99038.66;5093233;28;20044;-93
2021/12/01 02:38:49;;;;;;;17.40;8.02;;;;;;;2.53;79.79;99049.06;5092366;28;20139;-93
2021/12/01 02:41:16;;;;;;;13.40;8.00;;;;;;;2.31;80.13;99033.09;5092045;28;20036;-93
2021/12/01 02:43:43;;;;;;;15.80;8.32;;;;;;;2.33;79.63;99064.59;5092199;28;20044;-93
2021/12/01 02:46:09;;;;;;;15.63;7.97;;;;;;;2.04;80.04;99058.19;5092360;28;20052;-94
2021/12/01 02:48:41;;;;;;;12.55;7.43;;;;;;;1.93;79.86;99040.53;5092946;28;20155;-92
2021/12/01 02:51:08;;;;;;;13.98;7.30;;;;;;;1.78;80.07;99025.53;5092452;28;20037;-94
2021/12/01 02:53:34;;;;;;;15.50;8.45;;;;;;;1.90;80.35;99040.50;5092383;28;20044;-93
2021/12/01 02:56:06;;;;;;;16.20;8.27;;;;;;;1.77;81.14;99029.88;5092069;28;20036;-94
2021/12/01 02:58:36;;;;;;;18.80;8.60;;;;;;;1.79;81.22;99037.75;5092386;28;20068;-92
2021/12/01 03:01:07;;;;;;;19.73;9.05;;;;;;;1.71;80.91;99023.66;5092412;28;20055;-93
2021/12/01 03:03:34;;;;;;;19.20;8.73;;;;;;;1.56;80.96;99012.16;5091725;28;20040;-92
2021/12/01 03:06:00;;;;;;;18.45;9.52;;;;;;;1.40;81.09;98997.94;5092810;28;20044;-93
2021/12/01 03:08:26;;;;;;;17.58;9.43;;;;;;;1.48;81.35;99011.16;5092515;28;20101;-94
2021/12/01 03:10:53;;;;;;;18.30;9.38;;;;;;;1.41;81.68;99019.78;5092684;28;20050;-94
2021/12/01 03:13:22;;;;;;;17.10;9.23;;;;;;;1.42;83.27;99032.91;5090821;28;20048;-92
2021/12/01 03:15:48;;;;;;;16.13;8.98;;;;;;;1.26;83.28;99004.75;5077146;28;20098;-93
2021/12/01 03:18:16;;;;;;;15.43;9.20;;;;;;;1.42;82.87;99018.94;5078348;28;20049;-93
2021/12/01 03:20:42;;;;;;;19.05;9.73;;;;;;;1.28;82.66;98989.94;5078122;28;20068;-93
2021/12/01 03:23:09;;;;;;;17.92;9.70;;;;;;;1.42;82.79;98997.97;5078075;28;20132;-93
2021/12/01 03:25:36;;;;;;;19.15;10.38;;;;;;;1.49;82.74;99012.91;5077963;28;20052;-93
2021/12/01 03:28:06;;;;;;;20.38;10.40;;;;;;;1.38;82.11;98999.66;5077485;28;20142;-93
2021/12/01 03:30:37;;;;;;;14.75;8.80;;;;;;;1.30;82.01;98996.09;5077946;28;20132;-93
2021/12/01 03:33:07;;;;;;;15.98;9.68;;;;;;;1.18;83.28;98991.53;5077860;28;20076;-92
2021/12/01 03:35:34;;;;;;;16.17;8.80;;;;;;;1.13;83.38;98997.56;5078576;28;20048;-93
2021/12/01 03:38:03;;;;;;;17.95;8.80;;;;;;;1.13;83.40;99000.19;5078432;28;20053;-93
2021/12/01 03:40:29;;;;;;;18.63;10.25;;;;;;;0.94;83.48;98980.72;5077838;28;20100;-93
2021/12/01 03:42:56;;;;;;;17.88;9.35;;;;;;;0.80;83.66;98943.84;5078251;28;20048;-93
2021/12/01 03:45:22;;;;;;;18.33;9.73;;;;;;;0.98;83.07;98956.34;5077160;28;20040;-91
2021/12/01 03:47:49;;;;;;;17.33;9.40;;;;;;;1.14;82.58;98970.53;5077249;28;20051;-92
2021/12/01 03:50:15;;;;;;;18.13;8.98;;;;;;;0.99;83.20;98952.84;5077516;28;20494;-93
2021/12/01 03:52:41;;;;;;;17.52;9.13;;;;;;;1.08;82.93;98973.06;5077343;28;20064;-93
2021/12/01 03:55:08;;;;;;;17.83;10.27;;;;;;;1.22;80.31;98966.28;5077259;28;20045;-94
2021/12/01 03:57:35;;;;;;;14.70;8.73;;;;;;;1.20;81.30;98961.00;5077113;28;20072;-94
2021/12/01 04:00:05;;;;;;;18.67;9.68;;;;;;;1.32;82.02;98981.22;5078033;28;20047;-93
2021/12/01 04:02:32;;;;;;;17.00;9.60;;;;;;;1.29;82.14;98970.72;5076983;28;20482;-93
2021/12/01 04:04:59;;;;;;;18.98;9.30;;;;;;;1.19;82.41;98951.41;5077143;28;20040;-93
2021/12/01 04:07:25;;;;;;;17.30;9.65;;;;;;;1.27;82.28;98959.34;5076997;28;20036;-93
2021/12/01 04:09:51;;;;;;;16.48;8.60;;;;;;;1.21;82.28;98935.69;5076867;28;20176;-93
2021/12/01 04:12:17;;;;;;;20.92;9.27;;;;;;;1.51;82.09;98971.88;5076956;28;20040;-94
2021/12/01 04:14:43;;;;;;;22.08;9.55;;;;;;;1.34;80.84;98927.13;5076969;28;20048;-93
2021/12/01 04:17:10;;;;;;;15.27;8.73;;;;;;;1.38;80.55;98935.91;5076956;28;20494;-93
2021/12/01 04:19:37;;;;;;;15.60;8.40;;;;;;;1.56;78.49;98956.19;5076554;28;20036;-92
2021/12/01 04:22:04;;;;;;;16.85;7.80;;;;;;;1.64;79.92;98947.56;5076582;28;20131;-94
2021/12/01 04:24:31;;;;;;;14.82;7.38;;;;;;;1.62;79.91;98938.81;5076406;28;20075;-92
2021/12/01 04:26:57;;;;;;;14.63;7.10;;;;;;;1.72;80.10;98928.44;5075279;28;20152;-92
2021/12/01 04:29:25;;;;;;;23.75;9.00;;;;;;;2.10;75.62;98949.78;5076498;28;20386;-93
2021/12/01 04:31:51;;;;;;;14.00;7.38;;;;;;;2.16;74.35;98901.75;5076183;28;20044;-93
2021/12/01 04:34:21;;;;;;;14.13;7.80;;;;;;;2.27;76.97;98910.59;5076506;28;20047;-92
2021/12/01 04:36:49;;;;;;;15.27;7.72;;;;;;;2.48;76.80;98930.91;5076570;28;20050;-93
2021/12/01 04:39:18;;;;;;;14.68;7.30;;;;;;;2.54;77.80;98925.69;5075819;28;20127;-93
2021/12/01 04:44:46;;;;;;;12.48;7.30;;;;;;;2.78;81.18;98926.75;5147085;27;20381;-93
2021/12/01 04:47:14;;;;;;;11.52;7.15;;;;;;;2.68;80.58;98917.91;5113377;28;20482;-93
2021/12/01 04:49:41;;;;;;;14.70;7.85;;;;;;;2.68;80.01;98910.03;5113035;28;20056;-92
2021/12/01 04:52:09;;;;;;;14.10;7.25;;;;;;;2.81;79.34;98922.38;5112778;28;20042;-92
2021/12/01 04:54:35;;;;;;;13.57;7.47;;;;;;;2.92;80.33;98927.69;5112955;28;20043;-93
2021/12/01 04:57:02;;;;;;;11.70;6.57;;;;;;;2.87;80.08;98918.91;5112856;28;20042;-93
2021/12/01 04:59:28;;;;;;;16.27;7.18;;;;;;;2.95;80.61;98921.56;5112822;28;20079;-94
2021/12/01 05:01:56;;;;;;;12.88;6.88;;;;;;;2.99;80.82;98923.34;5112711;28;20489;-93
2021/12/01 05:04:22;;;;;;;11.13;6.45;;;;;;;3.05;81.58;98934.78;5112699;28;20422;-93
2021/12/01 05:06:49;;;;;;;11.65;6.85;;;;;;;3.04;81.61;98922.53;5112674;28;20032;-93
2021/12/01 05:09:14;;;;;;;18.65;7.32;;;;;;;3.05;81.32;98915.50;5112945;28;20048;-94
2021/12/01 05:11:41;;;;;;;10.45;5.93;;;;;;;3.06;81.65;98915.53;5112726;28;20048;-94
2021/12/01 05:14:07;;;;;;;13.75;6.43;;;;;;;3.03;81.14;98918.13;5113015;28;20039;-94
2021/12/01 05:16:35;;;;;;;14.52;7.10;;;;;;;3.05;81.35;98895.38;5112176;28;20040;-92
2021/12/01 05:19:02;;;;;;;12.10;6.70;;;;;;;3.14;80.15;98897.16;5112389;28;20126;-94
2021/12/01 05:21:28;;;;;;;15.68;6.50;;;;;;;3.06;80.30;98894.50;5108062;28;20044;-96
2021/12/01 05:23:54;;;;;;;13.45;6.88;;;;;;;3.10;82.36;98895.38;5092498;28;20040;-93
2021/12/01 05:26:20;;;;;;;13.10;6.53;;;;;;;3.15;84.85;98911.19;5092120;28;20068;-93
2021/12/01 05:28:46;;;;;;;13.27;6.85;;;;;;;3.23;84.96;98923.50;5091989;28;20140;-93
2021/12/01 05:31:12;;;;;;;15.23;6.63;;;;;;;3.21;83.78;98909.47;5092111;28;20051;-94
2021/12/01 05:33:39;;;;;;;11.68;6.60;;;;;;;3.17;82.81;98897.19;5091742;28;20139;-92
2021/12/01 05:36:08;;;;;;;12.50;7.15;;;;;;;3.22;78.49;98886.69;5091949;28;20044;-93
2021/12/01 05:38:34;;;;;;;13.43;7.32;;;;;;;3.28;77.67;98886.72;5092064;28;20048;-93
2021/12/01 05:41:02;;;;;;;13.80;7.28;;;;;;;3.40;78.49;98892.00;5092123;28;20059;-92
2021/12/01 05:43:29;;;;;;;14.18;7.43;;;;;;;3.51;78.93;98907.81;5091547;28;20075;-94
2021/12/01 05:45:56;;;;;;;14.95;7.22;;;;;;;3.43;79.58;98896.44;5092017;28;20040;-94
2021/12/01 05:48:22;;;;;;;16.38;7.07;;;;;;;3.47;76.81;98878.03;5091564;28;20041;-92
2021/12/01 05:50:47;;;;;;;11.85;6.65;;;;;;;3.72;76.00;98906.16;5091930;28;20046;-92
2021/12/01 05:53:15;;;;;;;12.45;6.57;;;;;;;3.63;76.95;98867.56;5092501;28;20055;-93
2021/12/01 05:55:43;;;;;;;10.07;5.90;;;;;;;3.66;77.01;98870.19;5083649;28;20045;-92
2021/12/01 05:58:09;;;;;;;12.15;6.75;;;;;;;3.78;77.02;98891.25;5079979;28;20498;-94
2021/12/01 06:00:39;;;;;;;13.13;6.57;;;;;;;3.79;76.64;98885.09;5081221;28;20044;-93
2021/12/01 06:03:08;;;;;;;12.68;6.53;;;;;;;3.94;76.68;98904.44;5081736;28;20044;-93
2021/12/01 06:05:36;;;;;;;21.27;7.47;;;;;;;4.00;76.83;98915.84;5079094;28;20170;-93
2021/12/01 06:08:02;;;;;;;11.55;6.53;;;;;;;3.90;75.87;98893.91;5078557;28;20047;-93
2021/12/01 06:10:29;;;;;;;12.32;6.10;;;;;;;4.06;74.30;98896.56;5078780;28;20048;-92
2021/12/01 06:12:55;;;;;;;12.40;6.53;;;;;;;4.28;73.88;98910.63;5089799;28;20492;-94
2021/12/01 06:15:21;;;;;;;11.43;6.18;;;;;;;4.21;73.15;98906.22;5098111;28;20044;-93
2021/12/01 06:17:47;;;;;;;13.00;6.43;;;;;;;4.32;72.18;98905.34;5115848;28;20067;-94
2021/12/01 06:20:13;;;;;;;14.13;7.07;;;;;;;4.29;73.69;98900.09;5117942;28;20032;-93
2021/12/01 06:22:44;;;;;;;13.90;6.35;;;;;;;4.39;73.75;98915.88;5103615;28;20044;-92
2021/12/01 06:25:10;;;;;;;12.20;6.15;;;;;;;4.32;75.01;98907.97;5097963;28;20048;-92
2021/12/01 06:27:38;;;;;;;10.25;5.90;;;;;;;4.26;74.77;98896.56;5097943;28;20401;-93
2021/12/01 06:30:06;;;;;;;13.33;6.50;;;;;;;4.23;75.75;98896.56;5097349;28;20072;-92
2021/12/01 06:32:32;;;;;;;13.73;6.35;;;;;;;4.29;76.26;98910.63;5098009;28;20277;-94
2021/12/01 06:34:58;;;;;;;11.57;6.20;;;;;;;4.33;76.26;98914.13;5097622;28;20439;-94
2021/12/01 06:37:24;;;;;;;14.80;6.38;;;;;;;4.35;76.75;98908.84;5096595;28;20042;-93
2021/12/01 06:39:51;;;;;;;11.63;5.93;;;;;;;4.23;77.52;98884.28;5078318;28;20052;-93
2021/12/01 06:42:17;;;;;;;11.27;6.13;;;;;;;4.38;77.20;98903.59;5095743;28;20451;-93
2021/12/01 06:44:44;;;;;;;14.10;6.93;;;;;;;4.46;74.06;98896.56;5057428;28;20049;-92
2021/12/01 06:47:12;;;;;;;14.57;6.13;;;;;;;4.60;73.61;98893.91;5056767;28;20502;-92
2021/12/01 06:49:45;;;;;;;11.18;5.78;;;;;;;4.53;73.12;98866.69;5051362;28;20037;-92
2021/12/01 06:52:15;;;;;;;10.93;5.82;;;;;;;4.62;73.80;98874.63;5057387;28;20041;-94
2021/12/01 06:54:41;;;;;;;11.25;5.30;;;;;;;4.66;74.00;98880.72;5058199;28;20041;-91
2021/12/01 06:57:10;;;;;;;15.10;6.18;;;;;;;4.65;73.27;98879.88;5057457;28;20056;-92
2021/12/01 06:59:36;;;;;;;;;;;;;;;4.90;72.35;98912.31;5058215;28;20037;-93
2021/12/01 07:02:05;;;;;;;11.18;5.28;;;;;;;4.88;72.10;98892.09;5039016;28;20329;-92
2021/12/01 07:04:30;;;;;;;14.25;7.30;;;;;;;4.92;73.42;98905.28;5057516;28;20041;-94
2021/12/01 07:06:58;;;;;;;15.27;7.32;;;;;;;4.71;75.33;98882.50;5050508;28;20037;-92
2021/12/01 07:09:26;;;;;;;15.25;6.28;;;;;;;4.88;72.66;98902.63;5045850;28;20037;-92
2021/12/01 07:11:53;;;;;;;13.43;5.55;;;;;;;4.84;72.07;98877.22;5036943;28;20056;-93
2021/12/01 07:14:19;;;;;;;12.02;5.88;;;;;;;4.89;72.23;98878.06;5056171;28;20108;-92
2021/12/01 07:16:48;;;;;;;10.98;6.18;;;;;;;4.89;72.79;98867.53;5041389;28;20463;-93
2021/12/01 07:19:16;;;;;;;9.98;5.50;;;;;;;5.13;71.62;98904.34;5037563;28;20041;-92
2021/12/01 07:21:42;;;;;;;11.07;5.82;;;;;;;5.04;71.63;98870.13;5038150;28;20072;-93
2021/12/01 07:24:09;;;;;;;14.40;6.40;;;;;;;5.22;71.18;98886.75;5037083;28;20037;-93
2021/12/01 07:26:35;;;;;;;15.05;5.57;;;;;;;5.12;71.44;98862.19;5036827;28;20047;-93
2021/12/01 07:29:03;;;;;;;14.38;6.32;;;;;;;5.15;71.16;98870.06;5037345;28;20483;-93
2021/12/01 07:31:29;;;;;;;10.02;5.38;;;;;;;5.11;71.58;98866.56;5037484;28;20073;-93
2021/12/01 07:34:00;;;;;;;12.18;6.43;;;;;;;5.18;70.87;98867.41;5046223;28;20057;-93
2021/12/01 07:36:27;;;;;;;15.20;7.10;;;;;;;5.13;71.70;98848.97;5039714;28;20064;-93
2021/12/01 07:38:53;;;;;;;16.83;5.93;;;;;;;5.30;71.57;98880.56;5047637;28;20144;-93
2021/12/01 07:41:19;;;;;;;10.88;5.97;;;;;;;5.25;71.78;98865.66;5056027;28;20065;-93
2021/12/01 07:43:45;;;;;;;10.75;5.68;;;;;;;5.42;71.61;98871.72;5079421;28;20058;-94
2021/12/01 07:46:11;;;;;;;12.27;6.28;;;;;;;5.49;71.45;98881.34;5080399;28;20397;-92
2021/12/01 07:48:38;;;;;;;12.23;6.32;;;;;;;5.46;71.95;98876.09;5096220;28;20046;-93
2021/12/01 07:51:07;;;;;;;13.02;6.18;;;;;;;5.48;72.41;98874.31;5096285;28;20051;-93
2021/12/01 07:53:35;;;;;;;;;;;;;;;5.66;72.89;98890.94;5096851;28;20127;-92
2021/12/01 07:56:02;;;;;;;12.60;5.45;;;;;;;5.76;72.98;98885.59;5096123;28;19920;-93
2021/12/01 07:58:28;;;;;;;11.05;5.78;;;;;;;5.84;73.10;98884.69;5085541;28;20048;-95
2021/12/01 08:00:54;;;;;;;15.60;6.20;;;;;;;5.82;73.14;98870.63;5075794;28;20079;-94
2021/12/01 08:03:20;;;;;;;13.38;6.18;;;;;;;5.93;73.99;98872.28;5075791;28;20040;-95
2021/12/01 08:05:46;;;;;;;13.23;6.63;;;;;;;5.87;73.74;98845.94;5075674;28;20513;-93
2021/12/01 08:08:13;;;;;;;14.30;7.18;;;;;;;6.02;73.67;98858.19;5075160;28;20049;-92
2021/12/01 08:10:41;;;;;;;20.95;9.55;;;;;;;6.17;73.67;98842.22;5076110;28;20048;-93
2021/12/01 08:13:10;;;;;;;16.75;8.18;;;;;;;6.49;71.94;98838.44;5075801;28;20547;-93
2021/12/01 08:15:35;;;;;;;17.20;7.50;;;;;;;6.75;71.15;98851.38;5077175;28;20076;-93
2021/12/01 08:18:02;;;;;;;12.48;7.88;;;;;;;6.68;70.02;98833.84;5075289;28;20044;-94
2021/12/01 08:20:28;;;;;;;25.58;9.18;;;;;;;6.82;70.71;98848.69;5076193;28;20043;-94
2021/12/01 08:22:54;;;;;;;20.20;8.50;;;;;;;6.86;71.23;98851.28;5075163;28;20072;-93
2021/12/01 08:25:23;;;;;;;22.33;10.18;;;;;;;6.79;70.35;98842.53;5075424;28;20056;-93
2021/12/01 08:27:52;;;;;;;21.38;11.02;;;;;;;6.72;70.74;98817.06;5075589;28;20072;-93
2021/12/01 08:30:18;;;;;;;23.25;11.25;;;;;;;6.86;70.54;98821.34;5075277;28;20045;-93
2021/12/01 08:35:46;;;;;;;22.55;10.43;;;;;;;7.23;68.71;98832.34;5153959;27;20385;-93
2021/12/01 08:38:14;;;;;;;20.42;9.77;;;;;;;7.18;68.91;98839.47;5133987;28;20054;-92
2021/12/01 08:40:41;;;;;;;21.17;10.13;;;;;;;7.26;69.06;98823.47;5133663;28;20106;-94
2021/12/01 08:43:07;;;;;;;22.80;10.85;;;;;;;6.92;70.15;98821.25;5133574;28;20043;-94
2021/12/01 08:45:34;;;;;;;325.20;110.32;;;;;;;6.86;70.54;98818.69;5151444;27;20369;-93
2021/12/01 08:48:03;;;;;;;36.03;18.98;;;;;;;7.02;72.52;98853.75;5141411;27;20070;-94
2021/12/01 08:50:29;;;;;;;120.40;88.50;;;;;;;7.00;74.19;98832.59;5133234;28;20171;-93
2021/12/01 08:52:57;;;;;;;25.50;14.75;;;;;;;7.03;73.35;98843.16;5132966;28;20498;-93
2021/12/01 08:55:23;;;;;;;36.35;21.77;;;;;;;6.92;73.70;98829.19;5133474;28;20047;-93
2021/12/01 08:57:49;;;;;;;28.50;15.60;;;;;;;7.01;74.53;98829.09;5132977;28;20077;-94
2021/12/01 09:00:17;;;;;;;18.08;10.15;;;;;;;7.03;73.70;98824.66;5132469;28;20122;-93
2021/12/01 09:02:43;;;;;;;28.88;18.00;;;;;;;7.15;73.59;98842.13;5132838;28;20035;-91
2021/12/01 09:05:09;;;;;;;20.10;10.18;;;;;;;7.11;73.37;98824.53;5132929;28;20372;-93
2021/12/01 09:07:35;;;;;;;25.83;11.90;;;;;;;7.21;73.74;98839.41;5132769;28;20468;-93
2021/12/01 09:10:08;;;;;;;26.48;16.45;;;;;;;7.09;74.55;98824.59;5128922;28;20087;-94
2021/12/01 09:12:34;;;;;;;23.48;10.63;;;;;;;7.13;75.57;98820.13;5132998;28;20040;-94
2021/12/01 09:15:00;;;;;;;24.33;11.63;;;;;;;7.28;75.69;98830.50;5132026;28;20065;-93
2021/12/01 09:17:26;;;;;;;17.35;8.43;;;;;;;7.30;75.49;98809.31;5132242;28;20052;-95
2021/12/01 09:19:52;;;;;;;28.70;16.88;;;;;;;7.41;76.18;98816.19;5132817;28;20047;-94
2021/12/01 09:22:19;;;;;;;28.17;14.05;;;;;;;7.50;76.63;98817.84;5132896;28;20071;-93
2021/12/01 09:24:46;;;;;;;28.67;13.80;;;;;;;7.68;75.90;98829.09;5132395;28;20035;-93
2021/12/01 09:27:14;;;;;;;28.23;14.13;;;;;;;7.71;75.36;98826.41;5131917;28;20126;-93
2021/12/01 09:29:41;;;;;;;45.97;29.42;;;;;;;7.68;75.75;98800.00;5132096;28;20046;-94
2021/12/01 09:32:08;;;;;;;29.50;16.20;;;;;;;7.89;75.18;98823.47;5131930;28;20039;-94
2021/12/01 09:34:34;;;;;;;27.50;12.48;;;;;;;7.80;75.50;98805.06;5131565;28;20047;-93
2021/12/01 09:37:00;;;;;;;25.45;13.00;;;;;;;7.72;75.37;98788.44;5131911;28;20123;-94
2021/12/01 09:39:28;;;;;;;28.27;12.55;;;;;;;7.78;75.48;98783.03;5131614;28;20492;-93
2021/12/01 09:41:58;;;;;;;29.73;14.50;;;;;;;7.87;76.37;98776.72;5131541;28;20040;-93
2021/12/01 09:44:27;;;;;;;51.67;29.88;;;;;;;8.05;75.97;98786.16;5131981;28;20520;-93
2021/12/01 09:46:53;;;;;;;33.38;16.90;;;;;;;8.09;76.05;98778.16;5119345;28;20044;-93
2021/12/01 09:49:20;;;;;;;37.75;17.27;;;;;;;8.13;76.77;98781.59;5118575;28;20051;-94
2021/12/01 09:51:46;;;;;;;30.05;13.82;;;;;;;8.21;76.39;98774.41;5118929;28;20047;-94
2021/12/01 09:54:12;;;;;;;46.00;30.60;;;;;;;8.26;78.02;98787.56;5118169;28;20038;-93
2021/12/01 09:56:40;;;;;;;31.02;19.33;;;;;;;8.16;79.49;98760.38;5118401;28;20051;-94
2021/12/01 09:59:09;;;;;;;123.82;62.38;;;;;;;8.35;80.07;98777.69;5118877;28;20075;-93
2021/12/01 10:01:38;;;;;;;23.60;11.70;;;;;;;8.42;80.14;98765.22;5118444;28;20040;-93
2021/12/01 10:04:08;;;;;;;26.23;10.55;;;;;;;8.54;80.76;98758.81;5118584;28;20046;-95
2021/12/01 10:06:35;;;;;;;21.20;10.38;;;;;;;8.60;80.32;98748.09;5117904;28;20101;-93
2021/12/01 10:09:05;;;;;;;13.88;6.30;;;;;;;8.86;80.55;98778.53;5118228;28;20047;-93
2021/12/01 10:11:33;;;;;;;23.23;9.52;;;;;;;8.88;80.38;98763.47;5118257;28;20075;-93
2021/12/01 10:14:03;;;;;;;18.58;8.63;;;;;;;8.94;79.56;98747.44;5117976;28;20043;-93
2021/12/01 10:16:34;;;;;;;22.63;11.82;;;;;;;9.14;79.89;98762.91;5117866;28;20053;-93
2021/12/01 10:19:04;;;;;;;25.00;10.35;;;;;;;9.18;79.86;98760.16;5117658;28;20049;-94
2021/12/01 10:21:32;;;;;;;28.90;14.93;;;;;;;9.14;79.68;98742.56;5117646;28;20043;-93
2021/12/01 10:24:02;;;;;;;33.30;14.80;;;;;;;9.17;80.04;98747.81;5117593;28;20046;-95
2021/12/01 10:26:31;;;;;;;28.55;15.55;;;;;;;9.09;80.31;98728.53;5117806;28;20449;-93
2021/12/01 10:28:59;;;;;;;28.23;15.98;;;;;;;9.04;80.22;98722.44;5117904;28;20043;-92
2021/12/01 10:31:34;;;;;;;28.25;10.98;;;;;;;9.14;80.41;98723.13;5117205;28;20036;-94
2021/12/01 10:34:26;;;;;;;20.42;8.07;;;;;;;9.21;80.68;98741.50;5117335;28;20043;-94
2021/12/01 10:37:11;;;;;;;31.83;12.27;;;;;;;9.22;80.61;98735.31;5118216;28;20044;-93
2021/12/01 10:39:38;;;;;;;23.80;9.68;;;;;;;9.19;81.14;98721.22;5117439;28;20035;-93
2021/12/01 10:42:06;;;;;;;20.48;7.90;;;;;;;9.33;81.15;98723.59;5117291;28;20119;-93
2021/12/01 10:44:33;;;;;;;30.65;11.68;;;;;;;9.23;80.71;98712.28;5116846;28;20079;-94
2021/12/01 10:47:09;;;;;;;24.05;10.80;;;;;;;9.31;81.09;98710.34;5117324;28;20047;-94
2021/12/01 10:49:40;;;;;;;23.08;12.48;;;;;;;9.44;80.93;98709.16;5117193;28;20489;-93
2021/12/01 10:52:07;;;;;;;19.60;13.32;;;;;;;9.59;80.10;98707.94;5117204;28;20058;-93
2021/12/01 10:54:36;;;;;;;24.60;17.63;;;;;;;9.70;80.47;98709.44;5117551;28;20457;-94
2021/12/01 10:57:20;;;;;;;46.55;30.48;;;;;;;9.57;80.50;98669.91;5116208;28;20032;-94
2021/12/01 10:59:48;;;;;;;21.10;9.25;;;;;;;9.82;80.23;98691.44;5096768;28;20048;-93
2021/12/01 11:02:16;;;;;;;21.30;10.25;;;;;;;9.74;79.88;98682.78;5115848;28;20043;-94
2021/12/01 11:04:48;;;;;;;13.00;9.32;;;;;;;9.69;80.11;98666.06;5117921;28;20039;-93
2021/12/01 11:07:24;;;;;;;19.92;7.75;;;;;;;9.68;80.52;98674.97;5118413;28;20484;-95
2021/12/01 11:10:09;;;;;;;14.82;7.10;;;;;;;9.60;80.82;98683.09;5117523;28;20047;-94
2021/12/01 11:12:35;;;;;;;21.52;7.80;;;;;;;9.54;81.44;98675.31;5118085;28;20088;-94
2021/12/01 11:15:15;;;;;;;25.38;6.85;;;;;;;9.67;81.42;98670.53;5117490;28;20067;-93
2021/12/01 11:17:41;;;;;;;20.33;7.35;;;;;;;9.60;81.25;98645.94;5117728;28;20497;-95
2021/12/01 11:20:30;;;;;;;15.30;6.35;;;;;;;9.76;81.06;98641.13;5116693;28;20130;-94
2021/12/01 11:23:07;;;;;;;18.10;7.32;;;;;;;9.86;80.88;98633.78;5116976;28;20505;-94
2021/12/01 11:25:36;;;;;;;15.73;6.63;;;;;;;9.89;80.70;98633.72;5117448;28;20419;-94
2021/12/01 11:28:02;;;;;;;22.03;7.30;;;;;;;9.94;80.54;98646.88;5117674;28;20035;-94
2021/12/01 11:30:28;;;;;;;17.35;6.32;;;;;;;9.96;80.72;98645.91;5116630;28;20475;-94
2021/12/01 11:32:55;;;;;;;17.17;8.27;;;;;;;9.78;81.52;98625.13;5118236;28;20052;-93
2021/12/01 11:35:23;;;;;;;13.43;7.43;;;;;;;9.94;81.15;98626.47;5117649;28;20050;-94
2021/12/01 11:40:56;;;;;;;23.58;12.07;;;;;;;10.01;82.00;98627.19;5134147;27;20741;-93
2021/12/01 11:43:24;;;;;;;24.55;13.95;;;;;;;9.85;82.94;98640.00;5132795;28;20043;-93
2021/12/01 11:45:50;;;;;;;28.80;13.70;;;;;;;9.82;82.46;98606.44;5126818;28;20036;-93
2021/12/01 11:48:21;;;;;;;37.53;22.20;;;;;;;10.00;83.25;98631.63;5133609;28;20502;-96
2021/12/01 11:50:54;;;;;;;25.63;15.07;;;;;;;10.06;83.01;98626.16;5128707;28;20039;-93
2021/12/01 11:53:22;;;;;;;29.20;12.57;;;;;;;9.92;83.09;98607.06;5113519;28;20138;-95
2021/12/01 11:55:57;;;;;;;21.13;8.25;;;;;;;9.85;83.00;98590.41;5114048;28;20374;-93